createdAt,value
2023-03-25T00:04:27.761Z,6.30
2023-03-25T00:09:29.544Z,6.40
2023-03-25T00:14:33.460Z,6.40
2023-03-25T00:19:35.624Z,6.40
2023-03-25T00:24:37.360Z,6.30
2023-03-25T00:29:39.112Z,6.20
2023-03-25T00:34:47.538Z,6.20
2023-03-25T00:39:49.497Z,6.20
2023-03-25T00:44:51.538Z,6.20
2023-03-25T00:49:53.536Z,6.10
2023-03-25T00:54:55.360Z,6.20
2023-03-25T00:59:57.111Z,6.10
2023-03-25T01:05:00.148Z,6.00
2023-03-25T01:10:02.419Z,6.00
2023-03-25T01:15:04.984Z,5.90
2023-03-25T01:20:09.879Z,5.90
2023-03-25T01:25:11.636Z,5.90
2023-03-25T01:30:14.159Z,5.90
2023-03-25T01:35:16.027Z,5.90
2023-03-25T01:40:21.073Z,5.80
2023-03-25T01:45:26.293Z,5.90
2023-03-25T01:50:29.315Z,5.90
2023-03-25T01:55:33.413Z,5.80
2023-03-25T02:00:35.550Z,5.70
2023-03-25T02:05:49.248Z,5.70
2023-03-25T02:10:52.589Z,5.80
2023-03-25T02:16:00.229Z,5.80
2023-03-25T02:21:10.902Z,5.70
2023-03-25T02:26:36.620Z,5.80
2023-03-25T02:31:41.200Z,5.60
2023-03-25T02:37:14.727Z,5.70
2023-03-25T02:42:34.916Z,5.60
2023-03-25T02:47:44.479Z,5.60
2023-03-25T02:52:57.482Z,5.60
2023-03-25T02:58:01.718Z,5.60
2023-03-25T03:03:05.524Z,5.60
2023-03-25T03:08:27.215Z,5.60
2023-03-25T03:14:07.581Z,5.50
2023-03-25T03:20:01.451Z,5.60
2023-03-25T03:25:03.270Z,5.50
2023-03-25T03:30:17.804Z,5.50
2023-03-25T03:35:27.328Z,5.30
2023-03-25T03:40:31.916Z,5.30
2023-03-25T03:45:45.144Z,5.50
2023-03-25T03:50:57.071Z,5.50
2023-03-25T03:56:32.274Z,5.40
2023-03-25T04:01:47.323Z,5.50
2023-03-25T04:07:01.688Z,5.30
2023-03-25T04:12:10.000Z,5.50
2023-03-25T04:17:12.056Z,5.50
2023-03-25T04:22:14.194Z,5.40
2023-03-25T04:27:19.912Z,5.50
2023-03-25T04:32:21.652Z,5.60
2023-03-25T04:37:25.731Z,5.60
2023-03-25T04:42:32.993Z,5.60
2023-03-25T04:47:36.501Z,5.70
2023-03-25T04:52:38.306Z,5.70
2023-03-25T04:57:40.161Z,5.80
2023-03-25T05:02:49.820Z,6.00
2023-03-25T05:07:54.764Z,6.20
2023-03-25T05:13:05.110Z,6.10
2023-03-25T05:18:13.726Z,6.10
2023-03-25T05:23:18.696Z,6.30
2023-03-25T05:28:22.050Z,6.30
2023-03-25T05:33:24.325Z,6.40
2023-03-25T05:38:26.105Z,6.40
2023-03-25T05:43:27.934Z,6.50
2023-03-25T05:48:33.229Z,6.60
2023-03-25T05:53:35.073Z,6.70
2023-03-25T05:58:36.825Z,6.80
2023-03-25T06:03:38.805Z,6.90
2023-03-25T06:08:44.681Z,7.10
2023-03-25T06:13:50.912Z,7.40
2023-03-25T06:18:56.371Z,7.70
2023-03-25T06:23:59.797Z,8.00
2023-03-25T06:29:02.727Z,8.90
2023-03-25T06:34:05.533Z,9.30
2023-03-25T06:39:07.256Z,10.40
2023-03-25T06:44:09.625Z,11.00
2023-03-25T06:49:11.410Z,13.90
2023-03-25T06:54:13.254Z,15.60
2023-03-25T06:59:15.519Z,17.00
2023-03-25T07:04:19.495Z,17.60
2023-03-25T07:09:21.395Z,18.00
2023-03-25T07:14:23.158Z,19.40
2023-03-25T07:19:25.172Z,19.10
2023-03-25T07:24:27.232Z,19.20
2023-03-25T07:29:28.987Z,19.30
2023-03-25T07:34:30.946Z,19.20
2023-03-25T07:39:32.800Z,19.90
2023-03-25T07:44:35.209Z,17.40
2023-03-25T07:49:37.065Z,17.60
2023-03-25T07:54:38.970Z,18.20
2023-03-25T07:59:40.831Z,18.70
2023-03-25T08:04:42.562Z,20.20
2023-03-25T08:09:44.338Z,17.40
2023-03-25T08:14:46.086Z,17.40
2023-03-25T08:19:47.852Z,18.90
2023-03-25T08:24:49.840Z,15.90
2023-03-25T08:29:55.750Z,12.70
2023-03-25T08:34:57.788Z,11.90
2023-03-25T08:39:59.560Z,11.90
2023-03-25T08:45:01.494Z,11.80
2023-03-25T08:50:03.957Z,11.60
2023-03-25T08:55:09.699Z,11.70
2023-03-25T09:00:13.506Z,12.20
2023-03-25T09:05:16.066Z,12.10
2023-03-25T09:10:18.081Z,12.00
2023-03-25T09:15:19.973Z,11.40
2023-03-25T09:20:21.844Z,11.30
2023-03-25T09:25:23.807Z,11.40
2023-03-25T09:30:25.746Z,11.40
2023-03-25T09:35:27.772Z,11.40
2023-03-25T09:40:29.950Z,11.20
2023-03-25T09:45:50.940Z,11.30
2023-03-25T09:50:52.861Z,11.60
2023-03-25T09:55:54.830Z,12.30
2023-03-25T10:01:01.780Z,13.70
2023-03-25T10:06:19.752Z,16.70
2023-03-25T10:11:37.577Z,16.30
2023-03-25T10:17:08.961Z,14.00
2023-03-25T10:22:21.671Z,14.50
2023-03-25T10:27:33.907Z,13.70
2023-03-25T10:32:45.103Z,14.30
2023-03-25T10:37:48.967Z,14.30
2023-03-25T10:43:14.823Z,14.40
2023-03-25T10:48:24.729Z,13.70
2023-03-25T10:53:28.579Z,13.60
2023-03-25T10:58:32.355Z,14.50
2023-03-25T11:03:35.436Z,14.70
2023-03-25T11:08:37.331Z,14.70
2023-03-25T11:13:41.245Z,14.70
2023-03-25T11:18:44.449Z,14.70
2023-03-25T11:23:51.738Z,14.30
2023-03-25T11:29:18.652Z,13.40
2023-03-25T11:34:22.467Z,13.40
2023-03-25T11:39:30.267Z,13.40
2023-03-25T11:44:33.397Z,13.50
2023-03-25T11:49:38.588Z,13.40
2023-03-25T11:54:42.329Z,13.60
2023-03-25T11:59:46.678Z,13.50
2023-03-25T12:05:05.675Z,13.60
2023-03-25T12:10:08.675Z,13.40
2023-03-25T12:15:35.488Z,13.30
2023-03-25T12:21:09.674Z,13.30
2023-03-25T12:26:24.095Z,13.40
2023-03-25T12:32:06.421Z,13.40
2023-03-25T12:37:17.403Z,14.10
2023-03-25T12:42:33.981Z,13.80
2023-03-25T12:47:56.927Z,13.10
2023-03-25T12:53:32.881Z,13.10
2023-03-25T12:58:56.103Z,13.20
2023-03-25T13:04:35.566Z,13.10
2023-03-25T13:10:06.668Z,13.00
2023-03-25T13:15:28.079Z,13.20
2023-03-25T13:20:33.425Z,13.40
2023-03-25T13:25:57.544Z,13.30
2023-03-25T13:31:01.740Z,13.00
2023-03-25T13:36:28.099Z,12.90
2023-03-25T13:41:46.267Z,12.60
2023-03-25T13:46:54.848Z,12.60
2023-03-25T13:51:57.987Z,12.60
2023-03-25T13:57:33.370Z,12.70
2023-03-25T14:02:38.930Z,12.70
2023-03-25T14:07:46.862Z,12.50
2023-03-25T14:12:57.156Z,12.60
2023-03-25T14:18:00.338Z,12.70
2023-03-25T14:23:06.035Z,12.60
2023-03-25T14:28:12.309Z,12.50
2023-03-25T14:33:14.097Z,12.50
2023-03-25T14:38:18.255Z,12.60
2023-03-25T14:43:19.963Z,12.70
2023-03-25T14:48:30.560Z,12.60
2023-03-25T14:53:32.455Z,12.50
2023-03-25T14:58:38.661Z,12.50
2023-03-25T15:03:48.291Z,12.40
2023-03-25T15:08:59.593Z,12.30
2023-03-25T15:14:05.656Z,12.10
2023-03-25T15:19:12.773Z,12.00
2023-03-25T15:24:28.746Z,11.90
2023-03-25T15:29:46.783Z,12.00
2023-03-25T15:35:03.602Z,11.90
2023-03-25T15:40:19.010Z,11.80
2023-03-25T15:45:42.844Z,11.80
2023-03-25T15:51:03.410Z,11.80
2023-03-25T15:56:10.720Z,11.70
2023-03-25T16:01:25.038Z,11.60
2023-03-25T16:06:27.855Z,11.50
2023-03-25T16:11:29.643Z,11.40
2023-03-25T16:16:36.085Z,11.20
2023-03-25T16:21:38.629Z,11.00
2023-03-25T16:26:48.015Z,10.90
2023-03-25T16:31:57.416Z,10.80
2023-03-25T16:36:59.904Z,10.70
2023-03-25T16:42:13.574Z,10.50
2023-03-25T16:47:16.257Z,10.40
2023-03-25T16:52:22.634Z,10.20
2023-03-25T16:57:32.413Z,10.10
2023-03-25T17:02:41.226Z,10.10
2023-03-25T17:07:43.259Z,10.20
2023-03-25T17:12:49.876Z,10.20
2023-03-25T17:18:00.045Z,10.00
2023-03-25T17:23:17.193Z,10.00
2023-03-25T17:28:32.466Z,9.90
2023-03-25T17:33:39.714Z,10.00
2023-03-25T17:38:45.081Z,9.90
2023-03-25T17:43:54.088Z,9.90
2023-03-25T17:48:57.984Z,9.90
2023-03-25T17:53:59.840Z,9.80
2023-03-25T17:59:04.072Z,9.80
2023-03-25T18:04:06.259Z,9.70
2023-03-25T18:09:14.845Z,9.70
2023-03-25T18:14:16.631Z,9.60
2023-03-25T18:19:21.298Z,9.60
2023-03-25T18:24:23.262Z,9.50
2023-03-25T18:29:28.246Z,9.60
2023-03-25T18:34:30.173Z,9.50
2023-03-25T18:39:32.766Z,9.50
2023-03-25T18:44:34.855Z,9.60
2023-03-25T18:49:36.642Z,9.60
2023-03-25T18:54:38.362Z,9.50
2023-03-25T18:59:40.127Z,9.50
2023-03-25T19:04:57.739Z,9.50
2023-03-25T19:10:02.338Z,9.40
2023-03-25T19:15:04.387Z,9.40
2023-03-25T19:20:07.458Z,9.30
2023-03-25T19:25:09.492Z,9.30
2023-03-25T19:30:15.457Z,9.30
2023-03-25T19:35:19.188Z,9.30
2023-03-25T19:40:24.259Z,9.40
2023-03-25T19:45:31.382Z,9.40
2023-03-25T19:50:34.495Z,9.30
2023-03-25T19:55:36.252Z,9.30
2023-03-25T20:00:38.566Z,9.30
2023-03-25T20:05:41.720Z,9.20
2023-03-25T20:10:43.501Z,9.10
2023-03-25T20:15:45.802Z,9.00
2023-03-25T20:20:47.633Z,9.00
2023-03-25T20:25:50.982Z,9.00
2023-03-25T20:30:53.065Z,8.90
2023-03-25T20:35:55.182Z,8.90
2023-03-25T20:40:57.224Z,8.90
2023-03-25T20:45:59.092Z,8.80
2023-03-25T20:51:06.356Z,8.80
2023-03-25T20:56:08.301Z,8.70
2023-03-25T21:01:11.536Z,8.60
2023-03-25T21:11:23.480Z,8.40
2023-03-25T21:16:25.405Z,8.50
2023-03-25T21:21:28.754Z,8.50
2023-03-25T21:26:31.432Z,8.40
2023-03-25T21:31:33.229Z,8.30
2023-03-25T21:36:35.004Z,8.20
2023-03-25T21:41:37.357Z,8.00
2023-03-25T21:46:41.174Z,7.90
2023-03-25T21:51:44.220Z,7.80
2023-03-25T21:56:47.029Z,7.70
2023-03-25T22:01:49.238Z,7.70
2023-03-25T22:06:51.029Z,7.80
2023-03-25T22:11:52.763Z,7.90
2023-03-25T22:16:54.563Z,7.90
2023-03-25T22:21:56.536Z,7.90
2023-03-25T22:26:58.444Z,7.90
2023-03-25T22:32:06.750Z,7.90
2023-03-25T22:37:08.618Z,7.70
2023-03-25T22:42:10.851Z,7.50
2023-03-25T22:47:13.106Z,7.30
2023-03-25T22:52:14.863Z,7.20
2023-03-25T22:57:18.175Z,7.30
2023-03-25T23:02:20.099Z,7.40
2023-03-25T23:07:21.924Z,7.50
2023-03-25T23:12:25.389Z,7.50
2023-03-25T23:17:27.409Z,7.50
2023-03-25T23:22:29.187Z,7.50
2023-03-25T23:27:33.910Z,7.60
2023-03-25T23:32:35.991Z,7.60
2023-03-25T23:37:37.787Z,7.60
2023-03-25T23:42:39.559Z,7.60
2023-03-25T23:47:41.397Z,7.50
2023-03-25T23:52:43.234Z,7.60
2023-03-25T23:57:44.931Z,7.50
